Time;durP1;ratioP1;P1;durP2;ratioP2;P2;SDS_P1;SDS_P2;PMS_P1;PMS_P2;Temp;Humidity;BMP_temperature;BMP_pressure;BME280_temperature;BME280_humidity;BME280_pressure;Samples;Min_cycle;Max_cycle;Signal;HPM_P1;HPM_P2
2023/03/11 00:04:57;;;;;;;9.93;2.22;;;;;;;-1.25;100.00;100461.66;5112926;28;20042;-80
2023/03/11 00:10:46;;;;;;;5.22;2.15;;;;;;;-1.31;100.00;100470.13;5110481;28;20043;-79
2023/03/11 00:16:33;;;;;;;5.40;2.50;;;;;;;-1.39;100.00;100478.75;5112658;28;20035;-80
2023/03/11 00:22:24;;;;;;;13.63;3.65;;;;;;;-1.50;100.00;100486.78;5112745;28;20051;-80
2023/03/11 00:28:14;;;;;;;6.68;2.30;;;;;;;-1.70;100.00;100475.56;5112190;28;20088;-78
2023/03/11 00:30:41;;;;;;;6.63;2.25;;;;;;;-1.61;100.00;100490.41;5093403;28;20039;-76
2023/03/11 00:36:32;;;;;;;12.68;2.78;;;;;;;-1.64;100.00;100495.94;5107044;28;20054;-77
2023/03/11 00:42:19;;;;;;;9.18;2.08;;;;;;;-1.73;100.00;100506.47;5113925;28;20047;-75
2023/03/11 00:48:07;;;;;;;9.85;2.03;;;;;;;-1.73;100.00;100524.81;5115572;28;20042;-76
2023/03/11 00:53:54;;;;;;;8.18;2.20;;;;;;;-1.81;100.00;100520.28;5118721;27;20039;-76
2023/03/11 00:59:41;;;;;;;8.40;2.00;;;;;;;-2.02;100.00;100482.97;5115440;28;20128;-78
2023/03/11 01:05:30;;;;;;;9.25;2.35;;;;;;;-1.83;100.00;100534.47;5117230;28;20155;-77
2023/03/11 01:11:17;;;;;;;8.75;2.15;;;;;;;-1.83;100.00;100537.94;5114680;28;20049;-77
2023/03/11 01:17:04;;;;;;;6.22;2.00;;;;;;;-1.68;100.00;100551.41;5115443;28;20425;-77
2023/03/11 01:22:52;;;;;;;5.28;2.20;;;;;;;-1.59;100.00;100555.81;5113095;28;20392;-77
2023/03/11 01:28:39;;;;;;;5.43;2.42;;;;;;;-1.64;100.00;100553.59;5114992;28;20041;-76
2023/03/11 01:34:26;;;;;;;9.50;2.25;;;;;;;-1.78;100.00;100553.22;5114985;28;20051;-75
2023/03/11 01:36:51;;;;;;;4.20;2.20;;;;;;;-1.80;100.00;100553.38;5117848;28;20035;-75
2023/03/11 01:39:16;;;;;;;6.85;2.28;;;;;;;-1.85;100.00;100549.53;5114776;28;20028;-75
2023/03/11 01:41:41;;;;;;;5.15;2.45;;;;;;;-1.92;100.00;100538.78;5114759;28;20474;-75
2023/03/11 01:47:35;;;;;;;7.75;2.50;;;;;;;-1.92;100.00;100549.25;5112531;28;20054;-75
2023/03/11 01:50:02;;;;;;;3.75;2.58;;;;;;;-1.95;100.00;100552.16;5116459;27;20518;-75
2023/03/11 01:55:50;;;;;;;5.85;2.40;;;;;;;-2.05;100.00;100548.72;5114662;28;20167;-76
2023/03/11 02:01:45;;;;;;;9.27;2.10;;;;;;;-2.07;100.00;100555.88;5114976;28;20047;-75
2023/03/11 02:07:32;;;;;;;9.02;3.38;;;;;;;-2.06;100.00;100554.91;5113700;28;20034;-75
2023/03/11 02:13:20;;;;;;;5.97;2.70;;;;;;;-2.03;100.00;100552.03;5114597;28;20149;-75
2023/03/11 02:19:40;;;;;;;5.80;2.35;;;;;;;-2.06;100.00;100568.03;5112434;28;20047;-75
2023/03/11 02:25:41;;;;;;;4.43;2.40;;;;;;;-2.12;100.00;100571.19;5114424;28;20508;-75
2023/03/11 02:31:29;;;;;;;11.73;3.75;;;;;;;-2.21;100.00;100560.59;5114376;28;20604;-75
2023/03/11 02:37:17;;;;;;;8.85;2.85;;;;;;;-2.26;100.00;100562.81;5112150;28;20058;-75
2023/03/11 02:43:12;;;;;;;8.80;2.78;;;;;;;-2.30;100.00;100558.81;5114080;28;20127;-75
2023/03/11 02:45:39;;;;;;;11.07;2.72;;;;;;;-2.25;100.00;100556.59;5113781;28;20043;-75
2023/03/11 02:48:07;;;;;;;9.40;3.03;;;;;;;-2.24;100.00;100565.28;5094459;28;20058;-75
2023/03/11 02:54:00;;;;;;;5.18;2.30;;;;;;;-2.24;100.00;100566.13;5113889;28;20050;-74
2023/03/11 02:56:25;;;;;;;8.68;2.55;;;;;;;-2.29;100.00;100557.84;5095409;28;20024;-77
2023/03/11 03:02:12;;;;;;;8.30;2.75;;;;;;;-2.36;100.00;100558.53;5113889;28;20108;-76
2023/03/11 03:04:37;;;;;;;9.48;2.22;;;;;;;-2.41;100.00;100548.47;5113436;28;20444;-76
2023/03/11 03:07:02;;;;;;;8.60;3.20;;;;;;;-2.45;100.00;100556.75;5116333;28;20039;-75
2023/03/11 03:22:55;;;;;;;13.98;2.72;;;;;;;-2.54;100.00;100595.88;5113206;28;20076;-77
2023/03/11 03:25:21;;;;;;;5.10;2.85;;;;;;;-2.51;100.00;100605.22;5094330;28;20472;-77
2023/03/11 03:31:09;;;;;;;6.75;2.40;;;;;;;-2.49;100.00;100611.16;5111192;28;20226;-76
2023/03/11 03:36:56;;;;;;;4.70;2.58;;;;;;;-2.43;100.00;100617.63;5113111;28;20086;-76
2023/03/11 03:46:30;;;;;;;6.32;2.47;;;;;;;-2.40;100.00;100626.03;5113028;28;20115;-76
2023/03/11 03:48:55;;;;;;;5.88;2.50;;;;;;;-2.40;100.00;100628.66;5112818;28;20031;-76
2023/03/11 03:51:21;;;;;;;6.55;2.70;;;;;;;-2.42;100.00;100629.75;5115845;28;20047;-75
2023/03/11 03:53:46;;;;;;;5.18;2.38;;;;;;;-2.48;100.00;100625.88;5112505;28;20027;-75
2023/03/11 03:59:33;;;;;;;4.80;2.80;;;;;;;-2.42;100.00;100635.81;5112841;28;20084;-76
2023/03/11 04:01:59;;;;;;;9.90;3.17;;;;;;;-2.39;100.00;100637.34;5112653;28;20031;-75
2023/03/11 04:04:24;;;;;;;11.60;3.50;;;;;;;-2.37;100.00;100635.41;5115513;27;20059;-75
2023/03/11 04:06:50;;;;;;;9.73;3.00;;;;;;;-2.37;100.00;100641.47;5112473;28;20047;-74
2023/03/11 04:09:15;;;;;;;9.57;2.85;;;;;;;-2.45;100.00;100630.84;5112418;28;20167;-75
2023/03/11 04:15:02;;;;;;;5.95;2.40;;;;;;;-2.53;100.00;100643.78;5112682;28;20039;-76
2023/03/11 04:17:28;;;;;;;11.65;2.97;;;;;;;-2.51;100.00;100650.56;5093582;28;20403;-76
2023/03/11 04:23:15;;;;;;;5.20;2.70;;;;;;;-2.59;100.00;100654.81;5115708;27;20073;-74
2023/03/11 04:25:40;;;;;;;6.78;2.65;;;;;;;-2.64;100.00;100649.13;5112271;28;20024;-76
2023/03/11 04:31:27;;;;;;;5.88;2.88;;;;;;;-2.66;100.00;100658.91;5112506;28;20077;-76
2023/03/11 04:33:53;;;;;;;9.00;2.63;;;;;;;-2.70;100.00;100658.34;5112077;28;20055;-76
2023/03/11 04:39:40;;;;;;;5.60;2.88;;;;;;;-2.06;100.00;100651.84;5112447;28;20076;-76
2023/03/11 04:42:05;;;;;;;8.43;3.25;;;;;;;-1.98;100.00;100657.22;5115047;28;20043;-75
2023/03/11 04:44:33;;;;;;;11.10;3.85;;;;;;;-2.08;100.00;100654.59;5112069;28;20575;-75
2023/03/11 04:50:20;;;;;;;4.80;2.47;;;;;;;-2.29;100.00;100654.72;5112398;28;20067;-76
2023/03/11 04:56:08;;;;;;;8.45;3.00;;;;;;;-2.50;100.00;100659.22;5112184;28;20089;-75
2023/03/11 05:05:19;;;;;;;8.43;3.17;;;;;;;-2.83;100.00;100663.81;5111684;28;20034;-76
2023/03/11 05:07:45;;;;;;;4.38;2.50;;;;;;;-2.86;100.00;100664.09;5114682;28;20044;-76
2023/03/11 05:13:31;;;;;;;12.48;3.28;;;;;;;-3.02;100.00;100657.66;5112168;28;20116;-75
2023/03/11 05:15:57;;;;;;;8.30;3.00;;;;;;;-3.05;100.00;100671.00;5111667;28;20063;-76
2023/03/11 05:18:22;;;;;;;5.28;2.63;;;;;;;-3.13;100.00;100667.28;5111558;28;20114;-76
2023/03/11 05:24:09;;;;;;;7.72;2.88;;;;;;;-3.16;100.00;100682.38;5113976;28;20088;-77
2023/03/11 05:26:35;;;;;;;13.10;3.40;;;;;;;-3.20;100.00;100681.78;5118042;27;20039;-76
2023/03/11 05:29:00;;;;;;;4.85;2.58;;;;;;;-3.25;100.00;100668.28;5096613;28;20055;-76
2023/03/11 05:34:47;;;;;;;8.65;3.72;;;;;;;-3.26;100.00;100686.72;5112892;28;20412;-76
2023/03/11 05:40:34;;;;;;;6.00;3.35;;;;;;;-3.31;100.00;100689.72;5114969;28;20043;-75
2023/03/11 05:42:59;;;;;;;6.93;2.70;;;;;;;-3.37;100.00;100684.19;5114620;28;20031;-75
2023/03/11 05:52:32;;;;;;;4.95;2.88;;;;;;;-3.34;100.00;100708.28;5114823;28;20380;-74
2023/03/11 05:54:58;;;;;;;6.63;3.33;;;;;;;-3.35;100.00;100703.19;5096262;28;20023;-74
2023/03/11 05:57:23;;;;;;;8.02;3.00;;;;;;;-3.37;100.00;100707.72;5117486;27;20044;-74
2023/03/11 05:59:48;;;;;;;4.85;2.78;;;;;;;-3.46;100.00;100702.28;5096146;28;20023;-75
2023/03/11 06:02:13;;;;;;;8.13;3.70;;;;;;;-3.42;100.00;100702.88;5117470;27;20039;-75
2023/03/11 06:08:01;;;;;;;5.68;3.30;;;;;;;-3.39;100.00;100714.84;5114285;28;20379;-75
2023/03/11 06:13:50;;;;;;;7.72;3.50;;;;;;;-3.25;100.00;100724.97;5114834;28;20053;-75
2023/03/11 06:16:16;;;;;;;6.25;3.00;;;;;;;-3.14;100.00;100727.53;5116824;28;20100;-75
2023/03/11 06:18:41;;;;;;;11.10;3.72;;;;;;;-2.93;100.00;100722.25;5114176;28;20035;-75
2023/03/11 06:21:07;;;;;;;10.73;4.30;;;;;;;-2.85;100.00;100717.22;5095399;28;20138;-74
2023/03/11 06:30:48;;;;;;;7.40;3.22;;;;;;;-2.25;100.00;100758.22;5114357;28;20096;-73
2023/03/11 06:36:35;;;;;;;11.35;3.97;;;;;;;-1.17;100.00;100737.16;5113401;28;20053;-74
2023/03/11 06:39:00;;;;;;;10.05;4.40;;;;;;;-0.58;100.00;100738.66;5094680;28;20396;-74
2023/03/11 06:44:48;;;;;;;7.93;4.38;;;;;;;1.13;100.00;100758.72;5112962;27;20124;-74
2023/03/11 06:50:55;;;;;;;10.32;3.78;;;;;;;2.60;100.00;100781.16;5113577;28;20058;-74
2023/03/11 06:53:21;;;;;;;9.30;3.92;;;;;;;3.33;100.00;100783.78;5113541;28;20024;-73
2023/03/11 06:59:08;;;;;;;9.40;3.47;;;;;;;5.48;100.00;100781.09;5113920;28;20047;-75
2023/03/11 07:04:55;;;;;;;5.78;3.05;;;;;;;6.61;100.00;100815.19;5111638;28;20372;-76
2023/03/11 07:10:42;;;;;;;10.75;3.53;;;;;;;7.65;100.00;100813.59;5113735;28;20561;-76
2023/03/11 07:16:29;;;;;;;4.82;2.30;;;;;;;6.53;100.00;100817.97;5111338;28;20284;-78
2023/03/11 07:22:17;;;;;;;5.97;2.60;;;;;;;7.00;100.00;100825.38;5113526;28;20063;-78
2023/03/11 07:28:04;;;;;;;4.38;2.63;;;;;;;7.42;100.00;100835.13;5116137;28;20076;-79
2023/03/11 07:30:29;;;;;;;5.10;2.30;;;;;;;7.39;100.00;100827.53;5113314;28;20035;-79
2023/03/11 07:32:54;;;;;;;9.63;4.13;;;;;;;7.60;100.00;100833.84;5113043;28;20281;-80
2023/03/11 07:38:42;;;;;;;6.28;2.75;;;;;;;8.76;100.00;100843.59;5113248;28;20096;-77
2023/03/11 07:41:10;;;;;;;6.63;3.05;;;;;;;9.19;100.00;100848.56;5115913;28;20051;-78
2023/03/11 07:43:35;;;;;;;7.07;2.65;;;;;;;9.91;100.00;100837.81;5094614;28;20475;-79
2023/03/11 07:49:22;;;;;;;8.93;2.90;;;;;;;11.00;96.19;100852.97;5112857;28;20087;-79
2023/03/11 07:55:09;;;;;;;6.30;2.53;;;;;;;11.62;100.00;100861.13;5113327;28;20387;-81
2023/03/11 08:00:56;;;;;;;5.43;2.85;;;;;;;11.18;83.52;100870.94;5111954;28;20042;-81
2023/03/11 08:06:46;;;;;;;8.50;2.80;;;;;;;9.87;87.20;100865.16;5112879;28;20184;-80
2023/03/11 08:12:33;;;;;;;6.10;2.72;;;;;;;10.33;93.84;100875.72;5110591;28;20392;-77
2023/03/11 08:14:58;;;;;;;9.37;2.90;;;;;;;10.71;92.56;100861.59;5094435;28;20057;-78
2023/03/11 08:20:45;;;;;;;7.28;2.65;;;;;;;11.91;80.62;100881.88;5112453;28;20284;-77
2023/03/11 08:26:32;;;;;;;9.57;2.78;;;;;;;9.88;89.89;100872.13;5112950;28;20073;-79
2023/03/11 08:32:19;;;;;;;7.72;2.42;;;;;;;9.54;95.35;100868.69;5112320;28;20046;-79
2023/03/11 08:38:06;;;;;;;5.03;2.22;;;;;;;9.52;85.83;100877.91;5112356;28;20315;-79
2023/03/11 08:43:53;;;;;;;7.50;2.47;;;;;;;10.95;78.82;100897.44;5110267;28;20043;-79
2023/03/11 08:49:40;;;;;;;7.03;2.20;;;;;;;12.10;75.62;100904.94;5112040;28;20104;-78
2023/03/11 08:55:28;;;;;;;2.33;1.55;;;;;;;12.50;66.77;100907.19;5110395;28;20327;-76
2023/03/11 09:01:15;;;;;;;6.28;2.78;;;;;;;15.11;61.06;100921.13;5115854;28;20055;-77
2023/03/11 09:07:02;;;;;;;4.05;1.60;;;;;;;14.57;53.96;100926.81;5115770;28;20055;-77
2023/03/11 09:12:49;;;;;;;3.80;1.92;;;;;;;14.91;52.04;100921.56;5115413;28;20309;-78
2023/03/11 09:18:35;;;;;;;5.60;1.90;;;;;;;15.62;50.07;100924.72;5115449;28;20499;-77
2023/03/11 09:24:22;;;;;;;5.50;1.65;;;;;;;16.34;40.84;100933.59;5113043;28;20621;-77
2023/03/11 09:30:10;;;;;;;3.00;1.40;;;;;;;16.92;46.77;100942.97;5115144;28;20067;-77
2023/03/11 09:35:58;;;;;;;7.32;3.38;;;;;;;17.76;39.10;100944.31;5113248;28;20050;-79
2023/03/11 09:42:00;;;;;;;4.15;1.90;;;;;;;15.75;42.09;100938.69;5115105;28;20474;-74
2023/03/11 09:48:12;;;;;;;4.35;2.38;;;;;;;17.32;48.79;100945.25;5114780;28;20555;-76
2023/03/11 09:54:04;;;;;;;3.42;1.55;;;;;;;15.66;40.33;100934.78;5112734;28;20039;-80
2023/03/11 09:59:53;;;;;;;4.80;1.48;;;;;;;13.08;49.11;100938.03;5114805;28;20038;-80
2023/03/11 10:05:41;;;;;;;5.20;2.00;;;;;;;11.42;48.20;100939.75;5115205;28;20054;-79
2023/03/11 10:11:43;;;;;;;3.03;1.60;;;;;;;10.42;52.48;100925.25;5113725;28;20034;-78
2023/03/11 10:17:45;;;;;;;2.15;1.60;;;;;;;9.85;58.44;100928.63;5114662;28;20065;-81
2023/03/11 10:23:41;;;;;;;5.32;1.42;;;;;;;9.83;59.46;100938.69;5113590;28;20062;-78
2023/03/11 10:29:44;;;;;;;6.22;2.03;;;;;;;9.98;59.75;100943.81;5113381;28;20502;-77
2023/03/11 10:35:43;;;;;;;2.13;1.30;;;;;;;10.21;57.41;100953.06;5114364;28;20169;-80
2023/03/11 10:41:53;;;;;;;3.47;1.45;;;;;;;10.81;59.18;100951.00;5114357;28;20376;-79
2023/03/11 10:47:41;;;;;;;3.13;1.85;;;;;;;11.17;52.59;100958.44;5111815;28;20457;-78
2023/03/11 10:53:29;;;;;;;4.60;1.73;;;;;;;10.82;54.88;100957.19;5116013;28;20080;-78
2023/03/11 10:59:33;;;;;;;6.50;1.70;;;;;;;12.59;52.38;100966.72;5112230;28;20112;-79
2023/03/11 11:05:31;;;;;;;4.28;2.13;;;;;;;12.67;53.96;100951.13;5114175;28;20082;-78
2023/03/11 11:11:23;;;;;;;3.28;1.58;;;;;;;12.11;50.29;100964.75;5113665;28;20043;-84
2023/03/11 11:17:32;;;;;;;4.22;1.75;;;;;;;11.28;56.56;100956.94;5111610;28;20097;-80
2023/03/11 11:23:45;;;;;;;2.90;1.50;;;;;;;10.74;56.50;100966.28;5113531;28;20038;-81
2023/03/11 11:29:33;;;;;;;9.82;2.38;;;;;;;10.43;51.67;100955.47;5113267;28;20042;-82
2023/03/11 11:35:23;;;;;;;6.85;1.73;;;;;;;10.43;51.52;100952.81;5113245;28;20556;-80
2023/03/11 11:41:17;;;;;;;4.93;1.50;;;;;;;10.50;54.48;100953.59;5113671;28;20434;-80
2023/03/11 11:47:17;;;;;;;5.13;2.60;;;;;;;11.32;53.28;100955.47;5113414;28;20104;-84
2023/03/11 11:53:18;;;;;;;5.68;2.72;;;;;;;11.35;53.88;100948.88;5111200;28;20426;-81
2023/03/11 11:59:15;;;;;;;4.18;1.92;;;;;;;11.61;48.96;100959.38;5112967;28;20570;-82
2023/03/11 12:05:26;;;;;;;5.18;2.03;;;;;;;14.60;46.59;100963.22;5113054;28;20046;-87
2023/03/11 12:11:26;;;;;;;3.15;1.70;;;;;;;14.91;42.58;100956.56;5111250;28;20054;-89
2023/03/11 12:17:15;;;;;;;2.75;1.58;;;;;;;13.20;41.76;100941.59;5113292;28;20096;-88
2023/03/11 12:26:32;;;;;;;4.40;1.52;;;;;;;13.67;38.75;100961.34;5112579;28;20124;-86
2023/03/11 12:32:37;;;;;;;4.80;2.00;;;;;;;13.93;37.51;100960.91;5112790;28;20051;-81
2023/03/11 12:38:34;;;;;;;7.38;1.90;;;;;;;13.41;39.47;100946.44;5117127;28;20400;-85
2023/03/11 12:44:23;;;;;;;5.22;1.73;;;;;;;12.81;42.70;100941.06;5116695;28;20540;-88
2023/03/11 12:50:38;;;;;;;5.82;1.63;;;;;;;10.58;45.79;100942.66;5116854;28;20059;-80
2023/03/11 12:56:42;;;;;;;3.60;1.80;;;;;;;11.25;45.39;100927.09;5114044;28;20092;-77
2023/03/11 13:02:42;;;;;;;3.42;1.63;;;;;;;12.55;41.16;100928.78;5115360;28;20407;-81
2023/03/11 13:08:44;;;;;;;2.17;1.30;;;;;;;11.62;41.51;100930.75;5115453;28;20039;-81
2023/03/11 13:14:34;;;;;;;4.70;1.83;;;;;;;10.25;44.82;100921.41;5115586;28;20086;-81
2023/03/11 13:20:40;;;;;;;4.30;1.83;;;;;;;10.83;42.94;100924.88;5115611;28;20051;-81
2023/03/11 13:23:11;;;;;;;6.20;2.05;;;;;;;10.71;44.84;100928.44;5118188;28;20403;-82
2023/03/11 13:25:42;;;;;;;1.95;1.40;;;;;;;10.90;50.19;100922.16;5115194;28;20061;-81
2023/03/11 13:32:14;;;;;;;2.25;1.40;;;;;;;11.08;47.24;100914.25;5115379;28;20088;-82
2023/03/11 13:35:01;;;;;;;4.22;1.48;;;;;;;11.08;41.11;100924.94;5100340;28;20526;-81
2023/03/11 13:40:50;;;;;;;2.83;1.60;;;;;;;13.35;42.00;100917.00;5114381;28;20046;-81
2023/03/11 13:43:18;;;;;;;4.57;1.40;;;;;;;13.44;42.09;100931.75;5095839;28;20515;-83
2023/03/11 13:45:55;;;;;;;3.42;1.38;;;;;;;13.50;40.30;100925.44;5114825;28;20060;-83
2023/03/11 13:51:45;;;;;;;3.72;1.65;;;;;;;11.48;42.20;100921.97;5114940;28;20088;-81
2023/03/11 13:54:18;;;;;;;3.92;1.70;;;;;;;10.48;44.96;100919.06;5095977;28;20047;-82
2023/03/11 13:56:48;;;;;;;4.80;1.90;;;;;;;9.82;48.07;100916.50;5096397;28;20122;-82
2023/03/11 13:59:26;;;;;;;8.40;2.17;;;;;;;10.08;47.87;100920.97;5117773;28;20066;-82
2023/03/11 14:02:15;;;;;;;2.78;1.70;;;;;;;10.31;49.27;100906.38;5096176;28;20080;-82
2023/03/11 14:04:47;;;;;;;5.82;1.85;;;;;;;10.53;48.51;100908.56;5115172;28;20487;-81
2023/03/11 14:10:34;;;;;;;3.88;2.20;;;;;;;10.02;49.40;100916.47;5112692;28;20097;-82
2023/03/11 14:13:13;;;;;;;4.30;1.90;;;;;;;9.51;47.86;100914.44;5117424;27;20040;-81
2023/03/11 14:19:14;;;;;;;3.22;1.67;;;;;;;8.46;48.64;100925.72;5114168;28;20067;-80
2023/03/11 14:21:44;;;;;;;7.78;2.08;;;;;;;8.20;53.85;100930.88;5094133;28;20036;-81
2023/03/11 14:24:19;;;;;;;2.75;1.60;;;;;;;8.18;55.49;100927.56;5117115;28;20408;-81
2023/03/11 14:26:46;;;;;;;5.63;1.92;;;;;;;8.02;52.29;100931.34;5095800;28;20111;-81
2023/03/11 14:29:18;;;;;;;6.07;1.90;;;;;;;7.98;51.25;100925.59;5095054;28;20043;-81
2023/03/11 14:31:45;;;;;;;3.92;1.70;;;;;;;8.10;56.76;100939.22;5114084;28;20407;-81
2023/03/11 14:34:10;;;;;;;5.65;2.15;;;;;;;7.90;49.96;100938.25;5113789;28;20032;-81
2023/03/11 14:43:46;;;;;;;3.08;1.90;;;;;;;7.84;56.95;100939.84;5114061;28;20128;-81
2023/03/11 14:46:21;;;;;;;5.28;1.63;;;;;;;7.87;57.02;100933.31;5113790;28;20032;-81
2023/03/11 14:52:17;;;;;;;3.65;2.10;;;;;;;7.99;51.17;100942.41;5114183;28;20043;-81
2023/03/11 14:54:43;;;;;;;4.93;1.67;;;;;;;8.01;54.47;100946.50;5094923;28;20031;-81
2023/03/11 14:57:18;;;;;;;3.70;1.77;;;;;;;8.07;52.10;100943.06;5094920;28;20073;-81
2023/03/11 14:59:47;;;;;;;6.07;1.90;;;;;;;8.09;57.86;100948.19;5116774;28;20507;-81
2023/03/11 15:05:54;;;;;;;4.47;1.70;;;;;;;8.11;50.57;100940.84;5113977;28;20051;-81
2023/03/11 15:11:57;;;;;;;2.33;1.63;;;;;;;8.20;49.46;100934.34;5111868;28;20465;-81
2023/03/11 15:17:51;;;;;;;3.15;1.77;;;;;;;7.98;49.53;100933.59;5111662;28;20051;-80
2023/03/11 15:23:44;;;;;;;4.15;2.05;;;;;;;7.88;54.18;100938.44;5113566;28;20038;-82
2023/03/11 15:26:21;;;;;;;4.65;2.35;;;;;;;7.85;54.44;100936.16;5113139;28;20036;-81
2023/03/11 15:28:53;;;;;;;3.90;1.80;;;;;;;7.83;48.18;100935.53;5116090;28;20453;-80
2023/03/11 15:34:40;;;;;;;2.97;1.65;;;;;;;7.69;51.43;100931.94;5113465;28;20043;-80
2023/03/11 15:40:28;;;;;;;3.80;1.83;;;;;;;7.55;56.83;100932.88;5111093;28;20042;-81
2023/03/11 15:46:15;;;;;;;8.45;1.90;;;;;;;7.40;57.49;100932.09;5113066;28;20078;-80
2023/03/11 15:52:02;;;;;;;8.93;3.90;;;;;;;7.44;58.29;100922.72;5115452;28;20166;-80
2023/03/11 15:57:55;;;;;;;6.75;4.10;;;;;;;7.47;56.47;100920.50;5112917;28;20054;-81
2023/03/11 16:00:22;;;;;;;6.78;2.30;;;;;;;7.34;58.88;100911.59;5112825;28;20028;-81
2023/03/11 16:06:09;;;;;;;4.72;2.13;;;;;;;7.11;59.73;100927.72;5113003;28;20078;-81
2023/03/11 16:11:56;;;;;;;3.03;1.95;;;;;;;6.88;60.85;100938.53;5110775;28;20055;-80
2023/03/11 16:14:21;;;;;;;5.50;2.10;;;;;;;6.76;60.61;100930.22;5094415;28;20032;-80
2023/03/11 16:20:09;;;;;;;4.53;2.20;;;;;;;6.78;60.18;100927.38;5113308;28;20650;-82
2023/03/11 16:25:59;;;;;;;8.40;4.03;;;;;;;6.66;62.65;100927.03;5113756;28;20043;-81
2023/03/11 16:31:48;;;;;;;5.80;1.80;;;;;;;6.53;60.51;100914.41;5113030;28;20125;-85
2023/03/11 16:37:35;;;;;;;10.95;3.53;;;;;;;6.50;61.21;100919.28;5113209;28;20450;-83
2023/03/11 16:43:22;;;;;;;3.72;2.33;;;;;;;6.14;61.96;100909.41;5110613;28;20067;-86
2023/03/11 16:49:09;;;;;;;7.10;3.80;;;;;;;5.86;64.88;100917.16;5112433;28;20526;-84
2023/03/11 16:54:56;;;;;;;5.47;2.30;;;;;;;5.61;68.39;100923.69;5110578;28;20508;-83
2023/03/11 17:00:44;;;;;;;6.15;1.98;;;;;;;5.41;70.55;100927.81;5113216;28;20081;-82
2023/03/11 17:03:11;;;;;;;5.93;2.10;;;;;;;5.37;73.49;100923.88;5112692;28;20028;-85
2023/03/11 17:08:58;;;;;;;8.07;2.17;;;;;;;5.21;79.16;100916.91;5112564;28;20046;-77
2023/03/11 17:14:45;;;;;;;3.47;2.00;;;;;;;5.10;86.07;100918.13;5112977;28;20062;-78
2023/03/11 17:17:11;;;;;;;4.93;2.17;;;;;;;4.95;78.72;100928.66;5093222;28;20051;-79
2023/03/11 17:22:59;;;;;;;6.07;2.60;;;;;;;4.72;80.75;100921.69;5116509;28;20035;-85
2023/03/11 17:28:46;;;;;;;4.13;2.30;;;;;;;4.52;78.43;100922.09;5119202;27;20050;-84
2023/03/11 17:34:32;;;;;;;3.80;2.25;;;;;;;4.34;75.04;100927.66;5115580;28;20091;-82
2023/03/11 17:40:20;;;;;;;4.05;3.00;;;;;;;3.96;80.06;100905.41;5115855;28;20512;-83
2023/03/11 17:46:10;;;;;;;6.68;2.70;;;;;;;3.48;78.38;100921.38;5115779;28;20090;-81
2023/03/11 17:51:57;;;;;;;4.53;2.53;;;;;;;3.29;77.40;100930.44;5115556;28;20081;-83
2023/03/11 17:57:44;;;;;;;4.60;2.35;;;;;;;3.20;79.48;100936.72;5113518;28;20136;-80
2023/03/11 18:03:31;;;;;;;6.72;4.30;;;;;;;3.05;82.16;100939.16;5115487;28;20054;-82
2023/03/11 18:09:18;;;;;;;11.07;6.03;;;;;;;2.83;84.83;100947.69;5114845;28;20039;-81
2023/03/11 18:15:10;;;;;;;7.82;4.28;;;;;;;2.82;97.88;100951.31;5115468;28;20050;-78
2023/03/11 18:24:18;;;;;;;7.82;5.00;;;;;;;2.70;100.00;100945.53;5114677;28;20034;-75
2023/03/11 18:30:10;;;;;;;8.30;4.25;;;;;;;2.72;100.00;100956.75;5114629;28;20047;-79
2023/03/11 18:35:56;;;;;;;6.45;4.72;;;;;;;2.51;100.00;100945.78;5112874;28;20043;-81
2023/03/11 18:41:43;;;;;;;9.05;5.95;;;;;;;2.54;100.00;100972.66;5114622;28;20046;-82
2023/03/11 18:47:34;;;;;;;11.68;5.90;;;;;;;2.55;100.00;100962.94;5111830;28;20039;-82
2023/03/11 18:53:23;;;;;;;8.80;6.28;;;;;;;2.37;100.00;100963.03;5114119;28;20143;-79
2023/03/11 18:59:11;;;;;;;10.80;6.50;;;;;;;2.27;100.00;100963.13;5114176;28;20042;-78
2023/03/11 19:04:58;;;;;;;10.70;6.65;;;;;;;2.24;100.00;100973.19;5112205;28;20451;-79
2023/03/11 19:10:45;;;;;;;12.00;6.45;;;;;;;2.17;100.00;100963.25;5113927;28;20047;-80
2023/03/11 19:16:32;;;;;;;12.60;7.68;;;;;;;2.00;100.00;100955.41;5111914;28;20089;-88
2023/03/11 19:22:19;;;;;;;13.43;7.07;;;;;;;1.97;100.00;100977.63;5113391;28;20172;-79
2023/03/11 19:28:06;;;;;;;17.88;7.88;;;;;;;1.86;100.00;100970.81;5113399;28;20089;-80
2023/03/11 19:33:52;;;;;;;7.97;5.38;;;;;;;1.73;100.00;100962.47;5113940;28;20506;-86
2023/03/11 19:39:39;;;;;;;11.52;8.05;;;;;;;1.62;100.00;100980.34;5116432;28;20080;-81
2023/03/11 19:45:30;;;;;;;11.27;7.57;;;;;;;1.56;100.00;100973.88;5111716;28;20054;-79
2023/03/11 19:51:18;;;;;;;14.73;7.85;;;;;;;1.40;100.00;100973.72;5112884;28;20034;-83
2023/03/11 19:57:05;;;;;;;14.82;6.90;;;;;;;1.19;100.00;100969.63;5110588;28;20613;-80
2023/03/11 20:02:55;;;;;;;9.50;6.05;;;;;;;1.08;100.00;100969.00;5112717;28;20104;-87
2023/03/11 20:08:42;;;;;;;10.63;5.28;;;;;;;1.10;100.00;100959.13;5112789;28;20038;-81
2023/03/11 20:11:08;;;;;;;13.07;7.60;;;;;;;1.15;100.00;100964.78;5115879;28;20077;-81
2023/03/11 20:16:54;;;;;;;18.65;10.35;;;;;;;1.16;100.00;100966.47;5111866;28;20046;-82
2023/03/11 20:22:41;;;;;;;41.25;17.45;;;;;;;1.25;100.00;100970.81;5112360;28;20051;-85
2023/03/11 20:28:28;;;;;;;13.48;8.13;;;;;;;1.38;100.00;100973.06;5110163;28;20047;-82
2023/03/11 20:34:15;;;;;;;12.88;6.47;;;;;;;1.45;100.00;100966.22;5111871;28;20047;-82
2023/03/11 20:36:40;;;;;;;11.80;6.70;;;;;;;1.42;100.00;100958.59;5093072;28;20031;-83
2023/03/11 20:42:27;;;;;;;10.10;6.18;;;;;;;1.47;100.00;100970.38;5112116;28;20088;-82
2023/03/11 20:48:14;;;;;;;9.75;6.13;;;;;;;1.46;100.00;100966.06;5112592;28;20179;-82
2023/03/11 20:54:01;;;;;;;10.48;6.72;;;;;;;1.22;100.00;100965.84;5115671;27;20419;-80
2023/03/11 20:59:48;;;;;;;10.15;7.47;;;;;;;1.11;100.00;100953.72;5113792;28;20123;-81
2023/03/11 21:05:36;;;;;;;12.43;7.80;;;;;;;1.15;100.00;100956.88;5115724;28;20116;-80
2023/03/11 21:11:24;;;;;;;18.73;11.77;;;;;;;1.08;100.00;100959.28;5115456;28;20446;-81
2023/03/11 21:17:12;;;;;;;24.55;12.80;;;;;;;1.03;100.00;100952.81;5115294;28;20043;-81
2023/03/11 21:19:37;;;;;;;15.85;10.93;;;;;;;1.05;100.00;100948.22;5118031;28;20391;-84
2023/03/11 21:25:24;;;;;;;13.80;10.18;;;;;;;1.22;100.00;100952.69;5114712;28;20059;-80
2023/03/11 21:31:15;;;;;;;15.80;9.13;;;;;;;1.30;100.00;100960.66;5114242;28;20056;-80
2023/03/11 21:37:02;;;;;;;13.48;8.80;;;;;;;1.32;100.00;100947.31;5114893;28;20127;-82
2023/03/11 21:42:48;;;;;;;11.52;8.73;;;;;;;1.34;100.00;100943.56;5112491;28;20043;-81
2023/03/11 21:48:36;;;;;;;14.32;8.93;;;;;;;1.46;100.00;100944.16;5114451;28;20059;-80
2023/03/11 21:54:23;;;;;;;19.85;10.95;;;;;;;1.39;100.00;100932.56;5117750;28;20072;-83
2023/03/11 22:00:10;;;;;;;16.92;10.93;;;;;;;1.47;100.00;100945.81;5114714;28;20170;-81
2023/03/11 22:05:59;;;;;;;15.98;9.52;;;;;;;1.61;100.00;100944.44;5114466;28;20551;-81
2023/03/11 22:11:46;;;;;;;11.75;8.32;;;;;;;1.75;100.00;100946.53;5113789;28;20494;-81
2023/03/11 22:17:33;;;;;;;15.90;10.50;;;;;;;1.67;100.00;100935.91;5114873;28;20074;-80
2023/03/11 22:23:20;;;;;;;18.00;9.43;;;;;;;1.63;100.00;100943.28;5114974;28;20046;-81
2023/03/11 22:29:07;;;;;;;17.52;10.45;;;;;;;1.63;100.00;100945.09;5114281;28;20041;-79
2023/03/11 22:31:32;;;;;;;48.65;19.48;;;;;;;1.58;100.00;100928.94;5117456;27;20047;-83
2023/03/11 22:37:19;;;;;;;55.70;21.17;;;;;;;1.69;100.00;100928.66;5117515;28;20078;-79
2023/03/11 22:43:06;;;;;;;14.90;8.10;;;;;;;1.75;100.00;100925.44;5114091;28;20058;-80
2023/03/11 22:48:53;;;;;;;16.42;8.75;;;;;;;1.80;100.00;100916.09;5114055;28;20552;-80
2023/03/11 22:54:40;;;;;;;13.05;8.27;;;;;;;1.73;100.00;100922.94;5112220;28;20050;-80
2023/03/11 23:00:27;;;;;;;16.15;9.30;;;;;;;1.76;100.00;100911.28;5113777;28;20095;-81
2023/03/11 23:06:17;;;;;;;20.27;10.02;;;;;;;1.77;100.00;100915.56;5114260;28;20050;-79
2023/03/11 23:12:05;;;;;;;10.25;7.55;;;;;;;1.73;100.00;100912.41;5114024;28;20046;-79
2023/03/11 23:14:31;;;;;;;12.52;7.47;;;;;;;1.77;100.00;100910.31;5116581;28;20071;-79
2023/03/11 23:20:18;;;;;;;12.43;7.90;;;;;;;1.78;100.00;100904.03;5116634;27;20479;-77
2023/03/11 23:26:08;;;;;;;13.93;9.10;;;;;;;1.80;100.00;100896.81;5112026;28;20055;-79